sensor_id;sensor_type;location;lat;lon;timestamp;temperature;humidity
4922;DHT22;16625;53.624;10.106;2023-02-03T06:47:34;6.80;99.90
4922;DHT22;16625;53.624;10.106;2023-02-03T06:50:01;7.40;99.90
4922;DHT22;16625;53.624;10.106;2023-02-03T06:52:28;6.90;99.90
4922;DHT22;16625;53.624;10.106;2023-02-03T06:54:54;6.80;99.90
4922;DHT22;16625;53.624;10.106;2023-02-03T06:57:21;6.90;99.90
4922;DHT22;16625;53.624;10.106;2023-02-03T06:59:48;6.90;99.90
4922;DHT22;16625;53.624;10.106;2023-02-03T07:02:15;7.40;99.90
4922;DHT22;16625;53.624;10.106;2023-02-03T07:04:43;7.40;99.90
4922;DHT22;16625;53.624;10.106;2023-02-03T07:07:10;7.80;99.90
4922;DHT22;16625;53.624;10.106;2023-02-03T07:09:37;8.50;99.90
4922;DHT22;16625;53.624;10.106;2023-02-03T07:12:07;7.10;99.90
4922;DHT22;16625;53.624;10.106;2023-02-03T07:14:35;7.70;99.90
4922;DHT22;16625;53.624;10.106;2023-02-03T07:17:04;7.00;99.90
4922;DHT22;16625;53.624;10.106;2023-02-03T07:19:31;7.10;99.90
4922;DHT22;16625;53.624;10.106;2023-02-03T07:21:59;8.40;99.90
4922;DHT22;16625;53.624;10.106;2023-02-03T07:24:26;7.10;99.90
4922;DHT22;16625;53.624;10.106;2023-02-03T07:26:52;8.00;99.90
4922;DHT22;16625;53.624;10.106;2023-02-03T07:29:19;8.50;99.90
4922;DHT22;16625;53.624;10.106;2023-02-03T07:31:46;8.00;99.90
4922;DHT22;16625;53.624;10.106;2023-02-03T07:34:13;7.10;99.90
4922;DHT22;16625;53.624;10.106;2023-02-03T07:36:39;7.20;99.90
4922;DHT22;16625;53.624;10.106;2023-02-03T07:39:20;8.70;99.90
4922;DHT22;16625;53.624;10.106;2023-02-03T07:41:47;7.20;99.90
4922;DHT22;16625;53.624;10.106;2023-02-03T07:44:14;7.20;99.90
4922;DHT22;16625;53.624;10.106;2023-02-03T07:46:41;8.40;99.90
4922;DHT22;16625;53.624;10.106;2023-02-03T07:49:09;7.30;99.90
4922;DHT22;16625;53.624;10.106;2023-02-03T07:51:36;8.40;99.90
4922;DHT22;16625;53.624;10.106;2023-02-03T07:54:03;7.20;99.90
4922;DHT22;16625;53.624;10.106;2023-02-03T07:56:31;8.50;99.90
4922;DHT22;16625;53.624;10.106;2023-02-03T07:58:58;8.80;99.90
4922;DHT22;16625;53.624;10.106;2023-02-03T08:01:26;7.30;99.90
4922;DHT22;16625;53.624;10.106;2023-02-03T08:03:53;8.80;99.90
4922;DHT22;16625;53.624;10.106;2023-02-03T08:06:20;7.30;99.90
4922;DHT22;16625;53.624;10.106;2023-02-03T08:08:59;7.10;99.90
4922;DHT22;16625;53.624;10.106;2023-02-03T08:11:30;5.50;99.90
4922;DHT22;16625;53.624;10.106;2023-02-03T08:13:57;5.00;99.90
4922;DHT22;16625;53.624;10.106;2023-02-03T08:16:24;6.40;99.90
4922;DHT22;16625;53.624;10.106;2023-02-03T08:18:51;4.80;99.90
4922;DHT22;16625;53.624;10.106;2023-02-03T08:21:18;5.70;99.90
4922;DHT22;16625;53.624;10.106;2023-02-03T08:23:45;4.80;99.90
4922;DHT22;16625;53.624;10.106;2023-02-03T08:26:12;6.40;99.90
4922;DHT22;16625;53.624;10.106;2023-02-03T08:28:40;5.10;99.90
4922;DHT22;16625;53.624;10.106;2023-02-03T08:31:11;6.70;99.90
4922;DHT22;16625;53.624;10.106;2023-02-03T08:33:38;6.90;99.90
4922;DHT22;16625;53.624;10.106;2023-02-03T08:36:05;6.90;99.90
4922;DHT22;16625;53.624;10.106;2023-02-03T08:38:32;5.60;99.90
4922;DHT22;16625;53.624;10.106;2023-02-03T08:40:59;5.60;99.90
4922;DHT22;16625;53.624;10.106;2023-02-03T08:43:26;6.50;99.90
4922;DHT22;16625;53.624;10.106;2023-02-03T08:45:56;5.70;99.90
4922;DHT22;16625;53.624;10.106;2023-02-03T08:48:28;6.80;99.90
4922;DHT22;16625;53.624;10.106;2023-02-03T08:50:54;5.50;99.90
4922;DHT22;16625;53.624;10.106;2023-02-03T08:53:21;5.70;99.90
4922;DHT22;16625;53.624;10.106;2023-02-03T08:55:48;7.20;99.90
4922;DHT22;16625;53.624;10.106;2023-02-03T08:58:15;5.60;99.90
4922;DHT22;16625;53.624;10.106;2023-02-03T09:00:42;5.80;99.90
4922;DHT22;16625;53.624;10.106;2023-02-03T09:03:10;7.00;99.90
4922;DHT22;16625;53.624;10.106;2023-02-03T09:05:37;6.70;99.90
4922;DHT22;16625;53.624;10.106;2023-02-03T09:08:04;6.60;99.90
4922;DHT22;16625;53.624;10.106;2023-02-03T09:10:31;5.30;99.90
4922;DHT22;16625;53.624;10.106;2023-02-03T09:12:58;5.30;99.90
4922;DHT22;16625;53.624;10.106;2023-02-03T09:15:25;5.10;99.90
4922;DHT22;16625;53.624;10.106;2023-02-03T09:17:52;5.30;99.90
4922;DHT22;16625;53.624;10.106;2023-02-03T09:20:23;8.20;99.90
4922;DHT22;16625;53.624;10.106;2023-02-03T09:22:50;7.40;99.90
4922;DHT22;16625;53.624;10.106;2023-02-03T09:25:23;7.50;99.90
4922;DHT22;16625;53.624;10.106;2023-02-03T09:27:50;5.30;99.90
4922;DHT22;16625;53.624;10.106;2023-02-03T09:42:58;6.30;99.90
4922;DHT22;16625;53.624;10.106;2023-02-03T09:45:31;7.40;99.90
4922;DHT22;16625;53.624;10.106;2023-02-03T09:48:01;6.70;99.90
4922;DHT22;16625;53.624;10.106;2023-02-03T09:50:34;7.20;99.90
4922;DHT22;16625;53.624;10.106;2023-02-03T09:53:11;6.70;99.90
4922;DHT22;16625;53.624;10.106;2023-02-03T09:55:41;7.10;99.90
4922;DHT22;16625;53.624;10.106;2023-02-03T10:05:03;7.50;99.90
4922;DHT22;16625;53.624;10.106;2023-02-03T10:08:33;7.40;99.90
4922;DHT22;16625;53.624;10.106;2023-02-03T11:36:55;8.20;99.90
4922;DHT22;16625;53.624;10.106;2023-02-03T11:39:48;8.20;1.00
4922;DHT22;16625;53.624;10.106;2023-02-03T11:42:22;8.20;99.90
4922;DHT22;16625;53.624;10.106;2023-02-03T11:45:13;8.60;1.00
4922;DHT22;16625;53.624;10.106;2023-02-03T11:47:49;8.20;1.00
4922;DHT22;16625;53.624;10.106;2023-02-03T11:50:42;8.30;1.00
4922;DHT22;16625;53.624;10.106;2023-02-03T11:53:40;8.30;99.90
4922;DHT22;16625;53.624;10.106;2023-02-03T11:57:16;8.40;98.30
4922;DHT22;16625;53.624;10.106;2023-02-03T12:00:03;8.40;1.00
4922;DHT22;16625;53.624;10.106;2023-02-03T12:03:08;8.70;1.00
4922;DHT22;16625;53.624;10.106;2023-02-03T12:09:02;8.20;99.90
4922;DHT22;16625;53.624;10.106;2023-02-03T12:11:42;8.20;1.00
4922;DHT22;16625;53.624;10.106;2023-02-03T12:14:20;8.20;99.90
4922;DHT22;16625;53.624;10.106;2023-02-03T12:17:16;8.80;99.90
4922;DHT22;16625;53.624;10.106;2023-02-03T12:20:00;8.10;99.90
4922;DHT22;16625;53.624;10.106;2023-02-03T12:22:32;8.40;33.90
4922;DHT22;16625;53.624;10.106;2023-02-03T12:25:25;8.80;1.00
4922;DHT22;16625;53.624;10.106;2023-02-03T12:28:03;8.50;1.00
4922;DHT22;16625;53.624;10.106;2023-02-03T12:30:38;9.10;1.00
4922;DHT22;16625;53.624;10.106;2023-02-03T12:33:15;8.60;99.90
4922;DHT22;16625;53.624;10.106;2023-02-03T12:35:49;8.20;99.90
4922;DHT22;16625;53.624;10.106;2023-02-03T12:38:24;8.80;99.90
4922;DHT22;16625;53.624;10.106;2023-02-03T12:40:58;8.70;99.90
4922;DHT22;16625;53.624;10.106;2023-02-03T12:43:29;8.20;99.90
4922;DHT22;16625;53.624;10.106;2023-02-03T12:46:05;8.50;99.90
4922;DHT22;16625;53.624;10.106;2023-02-03T12:48:41;8.90;99.90
4922;DHT22;16625;53.624;10.106;2023-02-03T12:51:14;8.50;99.90
4922;DHT22;16625;53.624;10.106;2023-02-03T12:53:47;9.30;99.90
4922;DHT22;16625;53.624;10.106;2023-02-03T12:56:21;8.70;99.90
4922;DHT22;16625;53.624;10.106;2023-02-03T12:58:54;8.50;51.80
4922;DHT22;16625;53.624;10.106;2023-02-03T13:01:24;8.70;99.90
4922;DHT22;16625;53.624;10.106;2023-02-03T13:03:59;8.70;1.00
4922;DHT22;16625;53.624;10.106;2023-02-03T13:06:33;8.00;1.00
4922;DHT22;16625;53.624;10.106;2023-02-03T13:09:07;8.60;1.00
4922;DHT22;16625;53.624;10.106;2023-02-03T13:11:45;8.60;1.00
4922;DHT22;16625;53.624;10.106;2023-02-03T13:14:19;8.10;1.00
4922;DHT22;16625;53.624;10.106;2023-02-03T13:16:52;8.60;99.90
4922;DHT22;16625;53.624;10.106;2023-02-03T13:19:23;8.80;99.90
4922;DHT22;16625;53.624;10.106;2023-02-03T13:21:50;8.70;99.90
4922;DHT22;16625;53.624;10.106;2023-02-03T13:24:18;7.80;1.00
4922;DHT22;16625;53.624;10.106;2023-02-03T13:27:00;9.10;1.00
4922;DHT22;16625;53.624;10.106;2023-02-03T13:29:41;8.20;1.00
4922;DHT22;16625;53.624;10.106;2023-02-03T13:32:23;8.80;1.00
4922;DHT22;16625;53.624;10.106;2023-02-03T13:35:08;7.80;99.90
4922;DHT22;16625;53.624;10.106;2023-02-03T13:37:49;8.50;99.90
4922;DHT22;16625;53.624;10.106;2023-02-03T13:40:35;8.60;99.90
4922;DHT22;16625;53.624;10.106;2023-02-03T13:43:14;8.50;99.90
4922;DHT22;16625;53.624;10.106;2023-02-03T13:45:44;8.50;99.90
4922;DHT22;16625;53.624;10.106;2023-02-03T13:48:17;8.20;99.90
4922;DHT22;16625;53.624;10.106;2023-02-03T13:51:00;7.90;99.90
4922;DHT22;16625;53.624;10.106;2023-02-03T13:53:34;8.80;99.90
4922;DHT22;16625;53.624;10.106;2023-02-03T13:56:21;7.80;99.90
4922;DHT22;16625;53.624;10.106;2023-02-03T13:59:38;8.10;99.90
4922;DHT22;16625;53.624;10.106;2023-02-03T14:02:37;7.80;1.00
4922;DHT22;16625;53.624;10.106;2023-02-03T14:07:50;8.80;1.00
4922;DHT22;16625;53.624;10.106;2023-02-03T14:10:20;7.70;1.00
4922;DHT22;16625;53.624;10.106;2023-02-03T14:13:03;7.70;1.00
4922;DHT22;16625;53.624;10.106;2023-02-03T14:16:20;7.60;1.00
4922;DHT22;16625;53.624;10.106;2023-02-03T14:19:01;7.50;1.00
4922;DHT22;16625;53.624;10.106;2023-02-03T14:21:41;8.40;1.00
4922;DHT22;16625;53.624;10.106;2023-02-03T14:24:11;7.30;1.00
4922;DHT22;16625;53.624;10.106;2023-02-03T14:26:39;7.50;1.00
4922;DHT22;16625;53.624;10.106;2023-02-03T14:29:10;7.50;1.00
4922;DHT22;16625;53.624;10.106;2023-02-03T14:32:00;7.40;1.00
4922;DHT22;16625;53.624;10.106;2023-02-03T14:34:32;8.70;1.00
4922;DHT22;16625;53.624;10.106;2023-02-03T14:37:16;7.50;1.00
4922;DHT22;16625;53.624;10.106;2023-02-03T14:43:25;7.40;1.00
4922;DHT22;16625;53.624;10.106;2023-02-03T14:46:31;7.40;81.50
4922;DHT22;16625;53.624;10.106;2023-02-03T14:52:14;7.10;70.00
4922;DHT22;16625;53.624;10.106;2023-02-03T14:54:53;7.40;95.80
4922;DHT22;16625;53.624;10.106;2023-02-03T14:57:33;8.40;53.70
4922;DHT22;16625;53.624;10.106;2023-02-03T15:00:04;8.50;99.30
4922;DHT22;16625;53.624;10.106;2023-02-03T15:02:33;7.10;92.70
4922;DHT22;16625;53.624;10.106;2023-02-03T15:05:36;8.50;82.20
4922;DHT22;16625;53.624;10.106;2023-02-03T15:08:38;7.30;93.10
4922;DHT22;16625;53.624;10.106;2023-02-03T15:14:16;8.30;99.90
4922;DHT22;16625;53.624;10.106;2023-02-03T15:16:44;7.70;99.90
4922;DHT22;16625;53.624;10.106;2023-02-03T15:19:15;7.70;99.90
4922;DHT22;16625;53.624;10.106;2023-02-03T15:21:45;7.90;1.00
4922;DHT22;16625;53.624;10.106;2023-02-03T15:24:17;7.70;1.00
4922;DHT22;16625;53.624;10.106;2023-02-03T15:26:48;7.70;1.00
4922;DHT22;16625;53.624;10.106;2023-02-03T15:29:29;7.30;21.90
4922;DHT22;16625;53.624;10.106;2023-02-03T15:32:08;7.20;99.90
4922;DHT22;16625;53.624;10.106;2023-02-03T16:35:31;6.20;1.00
4922;DHT22;16625;53.624;10.106;2023-02-03T16:38:19;6.20;99.90
4922;DHT22;16625;53.624;10.106;2023-02-03T16:41:26;5.80;99.90
4922;DHT22;16625;53.624;10.106;2023-02-03T16:47:31;5.50;99.90
4922;DHT22;16625;53.624;10.106;2023-02-03T16:50:25;5.80;99.90
4922;DHT22;16625;53.624;10.106;2023-02-03T17:03:16;5.70;99.90
4922;DHT22;16625;53.624;10.106;2023-02-03T17:06:36;5.70;99.90
4922;DHT22;16625;53.624;10.106;2023-02-03T17:09:36;5.40;99.90
4922;DHT22;16625;53.624;10.106;2023-02-03T17:12:31;5.30;99.90
4922;DHT22;16625;53.624;10.106;2023-02-03T17:15:07;5.50;99.90
4922;DHT22;16625;53.624;10.106;2023-02-03T17:17:51;5.10;99.90
4922;DHT22;16625;53.624;10.106;2023-02-03T17:20:27;5.10;99.90
4922;DHT22;16625;53.624;10.106;2023-02-03T17:23:24;5.10;99.90
4922;DHT22;16625;53.624;10.106;2023-02-03T17:26:15;5.10;99.90
4922;DHT22;16625;53.624;10.106;2023-02-03T17:29:01;5.10;99.90
4922;DHT22;16625;53.624;10.106;2023-02-03T17:31:37;5.00;99.90
4922;DHT22;16625;53.624;10.106;2023-02-03T17:34:05;5.50;99.90
4922;DHT22;16625;53.624;10.106;2023-02-03T17:36:44;5.20;99.90
4922;DHT22;16625;53.624;10.106;2023-02-03T17:39:16;4.90;99.90
4922;DHT22;16625;53.624;10.106;2023-02-03T17:41:51;5.00;99.90
4922;DHT22;16625;53.624;10.106;2023-02-03T17:44:18;5.40;99.90
4922;DHT22;16625;53.624;10.106;2023-02-03T17:46:48;5.00;99.90
4922;DHT22;16625;53.624;10.106;2023-02-03T17:49:17;4.90;99.90
4922;DHT22;16625;53.624;10.106;2023-02-03T17:51:59;4.90;99.90
4922;DHT22;16625;53.624;10.106;2023-02-03T17:54:57;4.90;99.90
4922;DHT22;16625;53.624;10.106;2023-02-03T17:57:41;4.80;99.90
4922;DHT22;16625;53.624;10.106;2023-02-03T18:00:12;5.60;99.90
4922;DHT22;16625;53.624;10.106;2023-02-03T18:02:42;4.90;99.90
4922;DHT22;16625;53.624;10.106;2023-02-03T18:05:15;4.90;99.90
4922;DHT22;16625;53.624;10.106;2023-02-03T18:07:45;4.90;99.90
4922;DHT22;16625;53.624;10.106;2023-02-03T18:10:18;5.30;99.90
4922;DHT22;16625;53.624;10.106;2023-02-03T18:12:53;5.00;99.90
4922;DHT22;16625;53.624;10.106;2023-02-03T18:15:26;4.90;99.90
4922;DHT22;16625;53.624;10.106;2023-02-03T18:17:55;5.40;99.90
4922;DHT22;16625;53.624;10.106;2023-02-03T18:20:22;5.50;99.90
4922;DHT22;16625;53.624;10.106;2023-02-03T18:23:07;5.00;99.90
4922;DHT22;16625;53.624;10.106;2023-02-03T18:29:10;5.10;99.90
4922;DHT22;16625;53.624;10.106;2023-02-03T18:31:38;5.60;99.90
4922;DHT22;16625;53.624;10.106;2023-02-03T18:34:16;5.50;99.90
4922;DHT22;16625;53.624;10.106;2023-02-03T18:37:03;5.10;99.90
4922;DHT22;16625;53.624;10.106;2023-02-03T18:49:57;5.20;99.90
4922;DHT22;16625;53.624;10.106;2023-02-03T18:52:57;5.60;99.90
4922;DHT22;16625;53.624;10.106;2023-02-03T19:13:14;5.10;99.90
4922;DHT22;16625;53.624;10.106;2023-02-03T19:16:10;5.10;99.90
4922;DHT22;16625;53.624;10.106;2023-02-03T19:22:05;5.80;99.90
4922;DHT22;16625;53.624;10.106;2023-02-03T19:24:57;5.10;99.90
4922;DHT22;16625;53.624;10.106;2023-02-03T19:27:24;5.10;99.90
4922;DHT22;16625;53.624;10.106;2023-02-03T19:30:07;5.00;99.90
4922;DHT22;16625;53.624;10.106;2023-02-03T19:32:35;5.10;99.90
4922;DHT22;16625;53.624;10.106;2023-02-03T19:35:02;5.10;99.90
4922;DHT22;16625;53.624;10.106;2023-02-03T19:37:29;5.10;99.90
4922;DHT22;16625;53.624;10.106;2023-02-03T19:40:13;5.80;99.90
4922;DHT22;16625;53.624;10.106;2023-02-03T19:42:49;5.10;99.90
4922;DHT22;16625;53.624;10.106;2023-02-03T19:45:42;5.00;99.90
4922;DHT22;16625;53.624;10.106;2023-02-03T19:48:09;5.20;99.90
4922;DHT22;16625;53.624;10.106;2023-02-03T19:50:37;5.20;99.90
4922;DHT22;16625;53.624;10.106;2023-02-03T19:53:07;5.70;99.90
4922;DHT22;16625;53.624;10.106;2023-02-03T19:55:37;5.60;99.90
4922;DHT22;16625;53.624;10.106;2023-02-03T19:58:04;5.60;99.90
4922;DHT22;16625;53.624;10.106;2023-02-03T20:00:46;6.80;99.90
4922;DHT22;16625;53.624;10.106;2023-02-03T20:03:24;5.50;99.90
4922;DHT22;16625;53.624;10.106;2023-02-03T20:05:51;5.50;99.90
4922;DHT22;16625;53.624;10.106;2023-02-03T20:08:25;5.50;99.90
4922;DHT22;16625;53.624;10.106;2023-02-03T20:11:04;5.60;99.90
4922;DHT22;16625;53.624;10.106;2023-02-03T20:13:32;5.60;99.90
4922;DHT22;16625;53.624;10.106;2023-02-03T20:16:02;6.20;99.90
4922;DHT22;16625;53.624;10.106;2023-02-03T20:18:45;5.60;99.90
4922;DHT22;16625;53.624;10.106;2023-02-03T20:21:48;6.10;99.90
4922;DHT22;16625;53.624;10.106;2023-02-03T20:24:22;5.10;99.90
4922;DHT22;16625;53.624;10.106;2023-02-03T20:27:33;5.50;99.90
4922;DHT22;16625;53.624;10.106;2023-02-03T20:40:12;5.20;99.90
4922;DHT22;16625;53.624;10.106;2023-02-03T20:46:23;5.00;99.90
4922;DHT22;16625;53.624;10.106;2023-02-03T20:49:15;5.00;99.90
4922;DHT22;16625;53.624;10.106;2023-02-03T20:55:12;4.90;99.90
4922;DHT22;16625;53.624;10.106;2023-02-03T20:58:18;4.80;99.90
4922;DHT22;16625;53.624;10.106;2023-02-03T21:01:10;4.70;99.90
4922;DHT22;16625;53.624;10.106;2023-02-03T21:04:02;4.90;99.90
4922;DHT22;16625;53.624;10.106;2023-02-03T21:07:18;4.60;99.90
4922;DHT22;16625;53.624;10.106;2023-02-03T21:09:57;4.50;99.90
4922;DHT22;16625;53.624;10.106;2023-02-03T21:12:30;4.40;99.90
4922;DHT22;16625;53.624;10.106;2023-02-03T21:15:01;4.40;99.90
4922;DHT22;16625;53.624;10.106;2023-02-03T21:17:32;5.40;99.90
4922;DHT22;16625;53.624;10.106;2023-02-03T21:20:01;4.70;99.90
4922;DHT22;16625;53.624;10.106;2023-02-03T21:22:32;4.90;99.90
4922;DHT22;16625;53.624;10.106;2023-02-03T21:25:19;4.30;99.90
4922;DHT22;16625;53.624;10.106;2023-02-03T21:27:52;4.30;99.90
4922;DHT22;16625;53.624;10.106;2023-02-03T21:30:27;4.30;99.90
4922;DHT22;16625;53.624;10.106;2023-02-03T21:32:57;4.30;99.90
4922;DHT22;16625;53.624;10.106;2023-02-03T21:35:44;4.80;99.90
4922;DHT22;16625;53.624;10.106;2023-02-03T21:38:26;4.80;99.90
4922;DHT22;16625;53.624;10.106;2023-02-03T21:40:55;4.90;99.90
4922;DHT22;16625;53.624;10.106;2023-02-03T21:43:23;4.20;99.90
4922;DHT22;16625;53.624;10.106;2023-02-03T21:45:51;4.20;99.90
4922;DHT22;16625;53.624;10.106;2023-02-03T21:48:26;4.10;99.90
4922;DHT22;16625;53.624;10.106;2023-02-03T21:50:54;4.00;99.90
4922;DHT22;16625;53.624;10.106;2023-02-03T21:53:25;4.20;99.90
4922;DHT22;16625;53.624;10.106;2023-02-03T21:55:52;3.80;99.90
4922;DHT22;16625;53.624;10.106;2023-02-03T21:58:23;4.00;99.90
4922;DHT22;16625;53.624;10.106;2023-02-03T22:00:54;4.30;99.90
4922;DHT22;16625;53.624;10.106;2023-02-03T22:03:25;4.10;99.90
4922;DHT22;16625;53.624;10.106;2023-02-03T22:05:57;3.50;99.90
4922;DHT22;16625;53.624;10.106;2023-02-03T22:08:32;3.90;99.90
4922;DHT22;16625;53.624;10.106;2023-02-03T22:11:00;4.50;99.90
4922;DHT22;16625;53.624;10.106;2023-02-03T22:13:28;3.10;99.90
4922;DHT22;16625;53.624;10.106;2023-02-03T22:15:57;3.10;99.90
4922;DHT22;16625;53.624;10.106;2023-02-03T22:18:24;3.10;99.90
4922;DHT22;16625;53.624;10.106;2023-02-03T22:20:52;3.60;99.90
4922;DHT22;16625;53.624;10.106;2023-02-03T22:23:20;2.90;99.90
4922;DHT22;16625;53.624;10.106;2023-02-03T22:25:48;3.20;99.90
4922;DHT22;16625;53.624;10.106;2023-02-03T22:28:16;3.30;99.90
4922;DHT22;16625;53.624;10.106;2023-02-03T22:30:44;3.50;99.90
4922;DHT22;16625;53.624;10.106;2023-02-03T22:33:11;2.70;99.90
4922;DHT22;16625;53.624;10.106;2023-02-03T22:35:38;3.30;99.90
4922;DHT22;16625;53.624;10.106;2023-02-03T22:38:05;3.90;99.90
4922;DHT22;16625;53.624;10.106;2023-02-03T22:40:32;2.50;99.90
4922;DHT22;16625;53.624;10.106;2023-02-03T22:42:59;3.00;99.90
4922;DHT22;16625;53.624;10.106;2023-02-03T22:45:26;2.10;99.90
4922;DHT22;16625;53.624;10.106;2023-02-03T22:47:55;2.70;99.90
4922;DHT22;16625;53.624;10.106;2023-02-03T22:50:24;3.00;99.90
4922;DHT22;16625;53.624;10.106;2023-02-03T22:52:52;3.00;99.90
4922;DHT22;16625;53.624;10.106;2023-02-03T22:55:20;3.30;99.90
4922;DHT22;16625;53.624;10.106;2023-02-03T22:57:49;2.90;99.90
4922;DHT22;16625;53.624;10.106;2023-02-03T23:00:19;3.10;99.90
4922;DHT22;16625;53.624;10.106;2023-02-03T23:02:47;3.20;99.90
4922;DHT22;16625;53.624;10.106;2023-02-03T23:05:17;3.90;23.60
4922;DHT22;16625;53.624;10.106;2023-02-03T23:07:45;3.40;1.00
4922;DHT22;16625;53.624;10.106;2023-02-03T23:12:42;4.20;1.00
4922;DHT22;16625;53.624;10.106;2023-02-03T23:15:09;4.20;1.00
4922;DHT22;16625;53.624;10.106;2023-02-03T23:17:36;4.80;1.00
4922;DHT22;16625;53.624;10.106;2023-02-03T23:20:04;4.50;1.00
4922;DHT22;16625;53.624;10.106;2023-02-03T23:22:33;3.40;99.90
4922;DHT22;16625;53.624;10.106;2023-02-03T23:25:00;3.40;99.90
4922;DHT22;16625;53.624;10.106;2023-02-03T23:27:27;3.40;99.90
4922;DHT22;16625;53.624;10.106;2023-02-03T23:29:54;3.90;99.90
4922;DHT22;16625;53.624;10.106;2023-02-03T23:32:21;3.50;99.90
4922;DHT22;16625;53.624;10.106;2023-02-03T23:34:48;4.00;99.90
4922;DHT22;16625;53.624;10.106;2023-02-03T23:37:34;3.30;99.90
4922;DHT22;16625;53.624;10.106;2023-02-03T23:40:01;3.90;99.90
4922;DHT22;16625;53.624;10.106;2023-02-03T23:42:28;4.10;99.90
4922;DHT22;16625;53.624;10.106;2023-02-03T23:44:55;3.30;99.90
4922;DHT22;16625;53.624;10.106;2023-02-03T23:47:23;3.80;99.90
4922;DHT22;16625;53.624;10.106;2023-02-03T23:49:50;3.30;99.90
4922;DHT22;16625;53.624;10.106;2023-02-03T23:52:17;4.10;99.90
4922;DHT22;16625;53.624;10.106;2023-02-03T23:54:45;3.80;99.90
4922;DHT22;16625;53.624;10.106;2023-02-03T23:57:12;3.40;99.90
4922;DHT22;16625;53.624;10.106;2023-02-03T23:59:39;4.40;99.90
